• Join FlightAware (Why Join?)
  • Login
  • US Flag 
02:06AM EDT


 

Airport Tracker/Info


-or-


 

Live Flight TrackerFlight Track Log ✈ BOE2 ✈ 07-Nov-2013 ✈ KPAE - KMWH

Flight Track Log - Related Links

Times and Time Zones

All times are in EST time to prevent confusion due to time zone crossing. See the BOE2 flight status page for this flight to view local times or setup timezone preferences in your user account.

Time Position Orientation Groundspeed Altitude Reporting Facility
EST Latitude Longitude Course Direction KTS MPH feet Rate Location/Type
11:06AM 47.8939 -122.2867 174° South 162 186 1,800  Level Seattle Center
11:06AM 47.8844 -122.2853 174° South 161 185 2,300 2,700 Climbing Seattle Center
11:07AM 47.8353 -122.2886 183° South 197 227 5,000 3,060 Climbing Seattle Center
11:07AM 47.8308 -122.2919 207° Southwest 213 245 5,400 3,300 Climbing Seattle Center
11:08AM 47.7944 -122.3533 229° Southwest 224 258 8,400 3,120 Climbing Seattle Center
11:09AM 47.7950 -122.4594 270° West 281 323 11,700 3,420 Climbing Seattle Center
11:10AM 47.8025 -122.5661 276° West 277 319 15,400 2,400 Climbing Seattle Center
11:11AM 47.8322 -122.6819 291° West 299 344 16,600 2,580 Climbing Seattle Center
11:13AM 47.8500 -122.9333 276° West 320 368 22,700 2,940 Climbing Vancouver Center
11:14AM 47.8667 -123.0833 279° West 330 380 24,900 1,500 Climbing Vancouver Center
11:15AM 47.8667 -123.2000 270° West 360 414 25,800 960 Climbing Vancouver Center
11:16AM 47.8833 -123.3833 278° West 380 437 26,900 1,080 Climbing Vancouver Center
11:17AM 47.9000 -123.5333 279° West 390 449 28,000 1,080 Climbing Vancouver Center
11:18AM 47.9333 -123.7000 287° West 410 472 29,100 1,140 Climbing Vancouver Center
11:19AM 47.9667 -123.8667 287° West 440 506 30,300 1,140 Climbing Vancouver Center
11:20AM 48.0000 -124.0500 285° West 440 506 31,400 1,080 Climbing Vancouver Center
11:21AM 48.0500 -124.2167 294° West 450 518 32,500 1,260 Climbing Vancouver Center
11:22AM 48.1667 -124.3333 326° Northwest 460 529 34,000 1,680 Climbing Vancouver Center
11:23AM 48.2833 -124.2833 16° North 480 552 35,900 1,860 Climbing Vancouver Center
11:24AM 48.3833 -124.1333 45° Northeast 480 552 37,800 1,140 Climbing Vancouver Center
11:25AM 48.3667 -123.9333 97° East 500 575 38,200 600 Climbing Vancouver Center
11:26AM 48.3333 -123.7167 103° East 520 598 39,000 360 Climbing Vancouver Center
11:27AM 48.3167 -123.5167 97° East 510 587 39,000  Level Vancouver Center
11:28AM 48.2833 -123.3000 103° East 510 587 39,000  Level Vancouver Center
11:29AM 48.2667 -123.1000 97° East 520 598 39,000  Level Vancouver Center
11:29AM 48.2758 -122.9886 83° East 515 593 39,000  Level Seattle Center
11:30AM 48.2519 -122.7694 99° East 526 605 39,000  Level Seattle Center
11:31AM 48.2283 -122.5511 99° East 529 609 39,000  Level Seattle Center
11:32AM 48.2028 -122.3344 100° East 527 606 39,000  Level Seattle Center
11:33AM 48.1500 -122.1319 111° Southeast 521 600 39,000  Level Seattle Center
11:34AM 48.1219 -121.9147 101° East 531 611 39,000  Level Seattle Center
11:35AM 48.1072 -121.6964 96° East 527 606 39,000  Level Seattle Center
11:36AM 48.0964 -121.4747 94° East 530 610 39,000  Level Seattle Center
11:37AM 48.0842 -121.2550 95° East 531 611 39,000  Level Seattle Center
11:38AM 48.0719 -121.0331 95° East 535 616 39,000  Level Seattle Center
11:40AM 48.0600 -120.7828 94° East 533 613 39,000  Level Seattle Center
11:41AM 48.0433 -120.5653 96° East 529 609 39,000  Level Seattle Center
11:42AM 48.0336 -120.3469 94° East 528 608 39,000 -60 Level Seattle Center
11:43AM 48.0217 -120.1300 95° East 527 606 38,900  Descending Seattle Center
11:44AM 48.0061 -119.9153 96° East 524 603 39,000  Climbing Seattle Center
11:45AM 47.9925 -119.7003 95° East 523 602 38,900 -60 Descending Seattle Center
11:46AM 47.9789 -119.4856 95° East 522 601 38,900  Level Seattle Center
11:47AM 47.9631 -119.2708 96° East 522 601 39,000  Climbing Seattle Center
11:48AM 47.9478 -119.0558 96° East 523 602 38,900  Descending Seattle Center
11:49AM 47.9317 -118.8406 96° East 523 602 39,000  Climbing Seattle Center
11:50AM 47.9167 -118.6242 96° East 525 604 39,000  Level Seattle Center
11:51AM 47.8997 -118.4114 97° East 520 598 39,000  Level Seattle Center
11:52AM 47.8797 -118.1536 97° East 521 600 39,000  Level Seattle Center
11:53AM 47.8625 -117.9386 97° East 524 603 39,000  Level Seattle Center
11:54AM 47.8447 -117.7233 97° East 524 603 39,000  Level Seattle Center
11:55AM 47.8264 -117.5072 97° East 524 603 39,000  Level Seattle Center
11:56AM 47.8092 -117.2903 97° East 526 605 39,000 -60 Level Seattle Center
11:57AM 47.7900 -117.0706 97° East 527 606 38,900  Descending Seattle Center
11:58AM 47.7692 -116.8503 98° East 528 608 39,000  Climbing Seattle Center
11:59AM 47.7486 -116.6322 98° East 529 609 38,900  Descending Seattle Center
12:00PM 47.7281 -116.4144 98° East 530 610 39,000  Climbing Seattle Center
12:01PM 47.7081 -116.1983 98° East 529 609 39,000  Level Seattle Center
12:02PM 47.6825 -115.9833 100° East 528 608 39,000 -60 Level Seattle Center
12:03PM 47.5731 -115.8619 143° Southeast 499 574 38,900 -60 Descending Seattle Center
12:04PM 47.4436 -115.8747 184° South 473 544 38,900  Level Seattle Center
12:05PM 47.3636 -116.0008 227° Southwest 445 512 39,000  Climbing Seattle Center
12:06PM 47.4061 -116.1636 291° West 445 512 39,000  Level Seattle Center
12:07PM 47.4778 -116.3117 306° West 446 513 39,000  Level Seattle Center
12:08PM 47.5525 -116.4572 307° West 447 514 39,000  Level Seattle Center
12:09PM 47.6231 -116.6083 305° West 449 517 39,000  Level Seattle Center
12:10PM 47.7067 -116.7817 306° West 440 506 39,000  Level Seattle Center
12:11PM 47.7650 -116.9311 300° West 443 510 39,000  Level Seattle Center
12:12PM 47.7828 -117.1067 279° West 440 506 39,000 -60 Level Seattle Center
12:13PM 47.7975 -117.2844 277° West 440 506 38,900 -60 Descending Seattle Center
12:14PM 47.8144 -117.4658 278° West 445 512 38,900  Level Seattle Center
12:15PM 47.8300 -117.6475 277° West 446 513 38,900  Level Seattle Center
12:16PM 47.8456 -117.8286 277° West 445 512 39,000  Climbing Seattle Center
12:17PM 47.8611 -118.0122 277° West 448 516 39,000  Level Seattle Center
12:18PM 47.8789 -118.2333 277° West 451 519 39,000  Level Seattle Center
12:19PM 47.8936 -118.4189 277° West 453 521 39,000 -60 Level Seattle Center
12:20PM 47.9086 -118.6036 277° West 452 520 38,900  Descending Seattle Center
12:21PM 47.9225 -118.7894 276° West 453 521 39,000  Climbing Seattle Center
12:22PM 47.9375 -118.9733 277° West 449 517 38,900 -60 Descending Seattle Center
12:23PM 47.9497 -119.1583 276° West 450 518 38,900  Level Seattle Center
12:24PM 47.9636 -119.3447 276° West 454 522 39,000  Climbing Seattle Center
12:25PM 47.9769 -119.5297 276° West 454 522 38,900  Descending Seattle Center
12:26PM 47.9897 -119.7144 276° West 450 518 39,000  Climbing Seattle Center
12:27PM 48.0031 -119.8978 276° West 448 516 39,000  Level Seattle Center
12:28PM 48.0131 -120.0814 275° West 446 513 39,000 -60 Level Seattle Center
12:29PM 48.0267 -120.2639 276° West 445 512 38,900  Descending Seattle Center
12:30PM 48.0372 -120.4442 275° West 441 507 39,000  Climbing Seattle Center
12:31PM 48.0528 -120.6247 277° West 440 506 38,900 -60 Descending Seattle Center
12:32PM 48.0647 -120.8447 275° West 444 511 38,900  Level Seattle Center
12:33PM 48.0722 -121.0017 274° West 443 510 39,000  Climbing Seattle Center
12:34PM 48.0850 -121.2219 275° West 444 511 39,000  Level Seattle Center
12:35PM 48.0944 -121.4064 274° West 448 516 39,000  Level Seattle Center
12:36PM 48.1044 -121.5900 275° West 447 514 39,000  Level Seattle Center
12:37PM 48.1314 -121.7692 283° West 458 527 39,000  Level Seattle Center
12:38PM 48.2356 -121.8733 326° Northwest 473 544 39,000  Level Seattle Center
12:39PM 48.3633 -121.8183 16° North 496 571 39,000  Level Seattle Center
12:40PM 48.4169 -121.6289 67° East 511 588 39,000  Level Seattle Center
12:42PM 48.2500 -121.3167 129° Southeast 500 575 39,000  Level Vancouver Center
12:43PM 48.1333 -121.1667 139° Southeast 500 575 39,000  Level Vancouver Center
12:44PM 48.0500 -121.0333 133° Southeast 500 575 39,000  Level Vancouver Center
12:45PM 48.0500 -120.8000 90° East 520 598 39,000  Level Vancouver Center
12:46PM 48.0333 -120.6000 97° East 520 598 39,000  Level Vancouver Center
12:47PM 48.0167 -120.3833 96° East 510 587 39,000 -720 Level Vancouver Center
12:48PM 48.0167 -120.1500 90° East 510 587 37,600 -2,520 Descending Vancouver Center
12:49PM 47.9833 -119.9667 105° East 490 564 34,000 -2,700 Descending Vancouver Center
12:50PM 47.9167 -119.8667 135° Southeast 410 472 32,300 -1,920 Descending Vancouver Center
12:52PM 47.8111 -119.8522 175° South 362 417 29,600 -1,920 Descending Seattle Center
12:53PM 47.7150 -119.8300 171° South 355 409 27,900 -1,740 Descending Seattle Center
12:54PM 47.6219 -119.8117 172° South 343 395 26,100 -1,320 Descending Seattle Center
12:55PM 47.5283 -119.7928 172° South 342 394 25,300 -600 Descending Seattle Center
12:56PM 47.4364 -119.7719 171° South 337 388 24,900 -180 Descending Seattle Center
12:57PM 47.3444 -119.7531 172° South 336 387 25,000  Climbing Seattle Center
12:58PM 47.2517 -119.7317 171° South 337 388 24,900 -300 Descending Seattle Center
12:59PM 47.1608 -119.7103 171° South 333 383 24,500 -480 Descending Seattle Center
01:00PM 47.0531 -119.6817 170° South 329 379 24,000 -600 Descending Seattle Center
01:01PM 46.9694 -119.6589 169° South 312 359 23,300 -1,140 Descending Seattle Center
01:02PM 46.8917 -119.5961 151° Southeast 321 369 21,800 -960 Descending Seattle Center
01:03PM 46.8122 -119.5206 147° Southeast 337 388 21,400 -1,380 Descending Seattle Center
01:04PM 46.7314 -119.4439 147° Southeast 334 384 19,100 -2,520 Descending Seattle Center
01:05PM 46.6464 -119.3614 146° Southeast 370 426 16,400 -2,040 Descending Seattle Center
01:06PM 46.6308 -119.2114 99° East 385 443 15,000 -720 Descending Seattle Center
01:07PM 46.6408 -119.0725 84° East 347 399 15,000 180 Level Seattle Center
01:08PM 46.6642 -118.9342 76° East 375 432 15,400 720 Climbing Seattle Center
01:09PM 46.7700 -118.9047 11° North 354 407 16,500 1,020 Climbing Seattle Center
01:10PM 46.8522 -118.9028 North 357 411 17,500 720 Climbing Seattle Center
01:11PM 46.9294 -118.9550 335° Northwest 334 384 18,000 180 Climbing Seattle Center
01:12PM 46.9522 -119.0639 287° West 295 339 17,900  Descending Seattle Center
01:13PM 46.9772 -119.1975 285° West 286 329 18,000  Climbing Seattle Center
01:14PM 46.9322 -119.2642 225° Southwest 288 331 18,000  Level Seattle Center
01:15PM 46.8542 -119.2350 166° South 291 335 18,000 60 Level Seattle Center
01:16PM 46.7847 -119.1694 147° Southeast 296 341 18,200 120 Climbing Seattle Center
01:17PM 46.7322 -119.1033 139° Southeast 256 295 18,300  Climbing Seattle Center
01:18PM 46.6881 -119.0569 144° Southeast 214 246 18,300 -60 Level Seattle Center
01:19PM 46.6508 -119.0353 158° South 161 185 18,200 -240 Descending Seattle Center
01:20PM 46.6181 -119.0122 154° Southeast 135 155 17,900 -120 Descending Seattle Center
01:21PM 46.5742 -118.9842 156° South 151 174 18,000  Climbing Seattle Center
01:22PM 46.5189 -118.9153 139° Southeast 229 264 18,000 -60 Level Seattle Center
01:23PM 46.4608 -118.8492 142° Southeast 262 302 17,900 -60 Descending Seattle Center
01:24PM 46.4292 -118.9008 228° Southwest 231 266 17,900  Level Seattle Center
01:25PM 46.5019 -118.9392 340° North 284 327 17,900  Level Seattle Center
01:26PM 46.5797 -118.9761 342° North 295 339 17,900  Level Seattle Center
01:27PM 46.6597 -119.0119 343° North 301 346 17,900  Level Seattle Center
01:28PM 46.7350 -119.0444 344° North 284 327 17,900  Level Seattle Center
01:29PM 46.8042 -119.0686 347° North 216 249 17,900  Level Seattle Center
01:30PM 46.8572 -119.0858 347° North 196 226 17,900  Level Seattle Center
01:31PM 46.8536 -119.1167 260° West 150 173 17,900  Level Seattle Center
01:32PM 46.8161 -119.1189 182° South 134 154 17,900  Level Seattle Center
01:33PM 46.7597 -119.0950 164° South 198 228 18,000  Climbing Seattle Center
01:34PM 46.6892 -119.0675 165° South 254 292 17,900 -480 Descending Seattle Center
01:35PM 46.6217 -119.0411 165° South 255 293 17,100 -840 Descending Seattle Center
01:36PM 46.5569 -119.0131 163° South 243 280 16,200 -900 Descending Seattle Center
01:37PM 46.4942 -118.9853 163° South 235 270 15,300 -1,020 Descending Seattle Center
01:39PM 46.1890 -118.9656 177° South  Level FlightAware Approximate
01:39PM 46.3717 -118.9311 177° South 229 264 13,200  Level Seattle Center
01:40PM 46.3103 -118.9064 164° South 228 262 12,400 -1,020 Descending Seattle Center
01:41PM 46.2431 -118.8819 166° South 221 254 11,200 -720 Descending Seattle Center
01:42PM 46.1778 -118.8611 168° South 224 258 11,000 -120 Descending Seattle Center
01:43PM 46.1169 -118.8433 169° South 223 257 11,000  Level Seattle Center
01:44PM 46.0869 -118.7742 122° Southeast 270 311 11,000 -300 Level Seattle Center
01:45PM 46.1594 -118.7556 10° North 284 327 10,500 -780 Descending Seattle Center
01:46PM 46.2383 -118.7742 351° North 275 316 9,500 -900 Descending Seattle Center
01:47PM 46.2972 -118.8039 341° North 258 297 8,700 -1,020 Descending Seattle Center
01:48PM 46.3650 -118.8422 339° North 260 299 7,500 -1,320 Descending Seattle Center
01:49PM 46.4489 -118.8900 339° North 273 314 6,100 -780 Descending Seattle Center
01:50PM 46.5108 -118.9267 338° Northwest 277 319 6,000 -60 Descending Seattle Center
01:51PM 46.5836 -118.9683 339° North 284 327 6,000  Level Seattle Center
01:53PM 46.6525 -119.0183 334° Northwest 277 319 6,000  Level Seattle Center
01:54PM 46.7353 -119.0789 333° Northwest 278 320 6,000  Level Seattle Center